createdAt,value
2023-02-14T00:01:46.051Z,19.75
2023-02-14T00:04:13.661Z,19.63
2023-02-14T00:06:41.156Z,19.64
2023-02-14T00:09:11.194Z,19.51
2023-02-14T00:11:39.266Z,19.97
2023-02-14T00:14:25.657Z,19.40
2023-02-14T00:16:53.132Z,19.53
2023-02-14T00:19:20.840Z,19.39
2023-02-14T00:21:48.831Z,19.64
2023-02-14T00:24:20.457Z,19.83
2023-02-14T00:26:48.243Z,19.90
2023-02-14T00:29:17.584Z,19.76
2023-02-14T00:31:45.604Z,19.75
2023-02-14T00:34:13.148Z,19.94
2023-02-14T00:36:40.520Z,20.09
2023-02-14T00:39:09.083Z,19.55
2023-02-14T00:41:37.991Z,19.56
2023-02-14T00:44:05.644Z,19.48
2023-02-14T00:46:33.369Z,19.57
2023-02-14T00:49:01.793Z,19.75
2023-02-14T00:51:29.494Z,19.63
2023-02-14T00:53:56.857Z,19.40
2023-02-14T00:56:24.303Z,19.70
2023-02-14T00:58:51.573Z,19.89
2023-02-14T01:01:19.369Z,19.74
2023-02-14T01:03:47.385Z,19.31
2023-02-14T01:06:14.958Z,19.59
2023-02-14T01:08:42.180Z,19.30
2023-02-14T01:11:17.358Z,19.58
2023-02-14T01:13:47.093Z,19.90
2023-02-14T01:16:17.203Z,19.47
2023-02-14T01:18:44.711Z,19.68
2023-02-14T01:21:13.388Z,19.43
2023-02-14T01:23:41.692Z,19.44
2023-02-14T01:26:09.090Z,20.27
2023-02-14T01:28:36.501Z,19.90
2023-02-14T01:31:11.414Z,19.89
2023-02-14T01:33:39.420Z,19.83
2023-02-14T01:36:07.297Z,20.11
2023-02-14T01:38:34.610Z,19.73
2023-02-14T01:41:02.048Z,20.08
2023-02-14T01:43:31.497Z,19.77
2023-02-14T01:46:00.523Z,19.63
2023-02-14T01:48:28.038Z,20.03
2023-02-14T01:50:55.410Z,19.83
2023-02-14T01:53:28.482Z,19.57
2023-02-14T01:56:03.623Z,19.69
2023-02-14T01:58:35.070Z,19.42
2023-02-14T02:01:03.850Z,20.09
2023-02-14T02:03:35.439Z,19.90
2023-02-14T02:06:10.669Z,19.75
2023-02-14T02:08:41.318Z,19.77
2023-02-14T02:11:08.890Z,20.63
2023-02-14T02:13:36.095Z,19.98
2023-02-14T02:16:13.357Z,19.98
2023-02-14T02:18:52.665Z,19.62
2023-02-14T02:21:26.808Z,19.84
2023-02-14T02:24:03.167Z,20.15
2023-02-14T02:26:49.639Z,19.80
2023-02-14T02:29:35.809Z,19.71
2023-02-14T02:32:09.140Z,20.15
2023-02-14T02:34:36.529Z,19.95
2023-02-14T02:37:09.940Z,19.85
2023-02-14T02:39:58.852Z,20.09
2023-02-14T02:42:29.866Z,19.83
2023-02-14T02:45:00.040Z,20.00
2023-02-14T02:47:34.202Z,20.00
2023-02-14T02:50:47.309Z,19.75
2023-02-14T02:53:36.328Z,20.17
2023-02-14T02:56:25.209Z,20.13
2023-02-14T02:59:06.703Z,20.06
2023-02-14T03:01:36.240Z,20.10
2023-02-14T03:04:25.463Z,19.90
2023-02-14T03:06:52.931Z,19.71
2023-02-14T03:09:20.119Z,19.67
2023-02-14T03:11:54.037Z,20.01
2023-02-14T03:14:26.372Z,19.72
2023-02-14T03:16:53.695Z,19.76
2023-02-14T03:19:58.465Z,20.22
2023-02-14T03:22:42.903Z,20.04
2023-02-14T03:25:19.468Z,20.10
2023-02-14T03:27:50.277Z,20.14
2023-02-14T03:30:27.616Z,20.15
2023-02-14T03:33:03.089Z,20.73
2023-02-14T03:35:35.572Z,20.17
2023-02-14T03:38:07.221Z,20.52
2023-02-14T03:40:41.085Z,19.87
2023-02-14T03:43:15.815Z,19.99
2023-02-14T03:45:47.778Z,20.23
2023-02-14T03:48:16.576Z,20.17
2023-02-14T03:50:45.844Z,19.98
2023-02-14T03:53:16.919Z,20.14
2023-02-14T03:55:58.245Z,20.01
2023-02-14T03:58:31.856Z,19.63
2023-02-14T04:01:03.260Z,19.85
2023-02-14T04:03:32.432Z,19.61
2023-02-14T04:06:00.511Z,19.86
2023-02-14T04:08:29.284Z,19.92
2023-02-14T04:10:58.578Z,20.11
2023-02-14T04:13:26.216Z,20.06
2023-02-14T04:15:53.517Z,19.81
2023-02-14T04:18:39.797Z,20.03
2023-02-14T04:21:08.041Z,19.88
2023-02-14T04:23:35.352Z,20.09
2023-02-14T04:26:04.229Z,19.91
2023-02-14T04:28:32.008Z,20.61
2023-02-14T04:31:03.616Z,20.12
2023-02-14T04:33:31.530Z,20.56
2023-02-14T04:35:59.242Z,20.06
2023-02-14T04:38:26.758Z,19.79
2023-02-14T04:40:54.019Z,19.77
2023-02-14T04:43:21.312Z,20.33
2023-02-14T04:45:48.575Z,20.08
2023-02-14T04:48:15.988Z,20.25
2023-02-14T04:50:43.524Z,20.43
2023-02-14T04:53:10.856Z,20.34
2023-02-14T04:55:38.298Z,20.02
2023-02-14T04:58:06.354Z,20.05
2023-02-14T05:00:33.768Z,19.77
2023-02-14T05:03:01.083Z,19.74
2023-02-14T05:05:28.280Z,19.74
2023-02-14T05:07:55.753Z,19.51
2023-02-14T05:10:23.043Z,19.66
2023-02-14T05:12:51.371Z,19.28
2023-02-14T05:15:18.679Z,19.49
2023-02-14T05:17:46.095Z,19.65
2023-02-14T05:20:13.490Z,19.98
2023-02-14T05:22:40.751Z,19.84
2023-02-14T05:25:08.277Z,19.56
2023-02-14T05:27:35.944Z,19.35
2023-02-14T05:30:03.361Z,19.85
2023-02-14T05:32:30.902Z,19.75
2023-02-14T05:35:00.774Z,19.69
2023-02-14T05:37:28.712Z,19.90
2023-02-14T05:39:56.375Z,19.60
2023-02-14T05:42:23.738Z,19.28
2023-02-14T05:44:51.031Z,19.40
2023-02-14T05:47:18.452Z,19.42
2023-02-14T05:49:45.811Z,19.88
2023-02-14T05:52:13.072Z,19.52
2023-02-14T05:54:40.444Z,19.77
2023-02-14T05:57:07.764Z,19.55
2023-02-14T05:59:35.127Z,19.42
2023-02-14T06:02:02.580Z,19.65
2023-02-14T06:04:29.862Z,19.22
2023-02-14T06:06:57.239Z,19.46
2023-02-14T06:09:24.513Z,19.42
2023-02-14T06:11:53.728Z,19.51
2023-02-14T06:14:22.434Z,19.28
2023-02-14T06:16:49.698Z,19.96
2023-02-14T06:19:17.114Z,19.57
2023-02-14T06:21:44.372Z,19.56
2023-02-14T06:24:11.642Z,19.60
2023-02-14T06:26:38.842Z,19.99
2023-02-14T06:29:06.416Z,19.43
2023-02-14T06:31:33.815Z,19.52
2023-02-14T06:34:01.210Z,19.89
2023-02-14T06:36:28.541Z,19.62
2023-02-14T06:38:56.025Z,19.58
2023-02-14T06:41:23.259Z,19.81
2023-02-14T06:43:50.771Z,19.38
2023-02-14T06:46:18.723Z,19.44
2023-02-14T06:48:46.026Z,19.35
2023-02-14T06:51:13.552Z,19.36
2023-02-14T06:53:41.058Z,19.26
2023-02-14T06:56:08.335Z,19.67
2023-02-14T06:58:35.718Z,19.57
2023-02-14T07:01:03.172Z,19.52
2023-02-14T07:03:30.743Z,19.11
2023-02-14T07:05:58.086Z,19.53
2023-02-14T07:08:26.337Z,20.07
2023-02-14T07:11:00.043Z,19.66
2023-02-14T07:13:27.716Z,19.37
2023-02-14T07:15:55.006Z,19.71
2023-02-14T07:18:22.304Z,19.39
2023-02-14T07:20:50.137Z,19.87
2023-02-14T07:23:17.664Z,19.44
2023-02-14T07:25:44.985Z,19.50
2023-02-14T07:28:12.219Z,19.49
2023-02-14T07:30:39.538Z,19.33
2023-02-14T07:33:06.951Z,19.23
2023-02-14T07:35:35.408Z,19.42
2023-02-14T07:38:02.667Z,19.71
2023-02-14T07:40:30.128Z,19.98
2023-02-14T07:42:58.327Z,19.31
2023-02-14T07:45:25.730Z,19.10
2023-02-14T07:47:54.193Z,19.60
2023-02-14T07:50:22.556Z,19.79
2023-02-14T07:52:50.147Z,19.74
2023-02-14T07:55:17.540Z,19.93
2023-02-14T07:57:44.842Z,19.50
2023-02-14T08:00:12.627Z,19.53
2023-02-14T08:02:40.040Z,20.04
2023-02-14T08:05:08.109Z,19.84
2023-02-14T08:07:35.358Z,20.14
2023-02-14T08:10:02.690Z,19.63
2023-02-14T08:12:48.770Z,19.31
2023-02-14T08:15:34.487Z,19.49
2023-02-14T08:18:01.837Z,19.64
2023-02-14T08:20:29.098Z,19.48
2023-02-14T08:22:56.615Z,19.74
2023-02-14T08:25:23.917Z,19.52
2023-02-14T08:27:51.583Z,19.64
2023-02-14T08:30:18.960Z,19.83
2023-02-14T08:32:46.513Z,19.72
2023-02-14T08:35:14.468Z,19.37
2023-02-14T08:37:41.751Z,20.05
2023-02-14T08:40:09.248Z,19.45
2023-02-14T08:42:36.524Z,19.67
2023-02-14T08:45:04.492Z,19.75
2023-02-14T08:47:35.892Z,19.96
2023-02-14T08:50:04.107Z,20.24
2023-02-14T08:52:31.423Z,20.26
2023-02-14T08:54:59.008Z,19.74
2023-02-14T08:57:27.810Z,20.23
2023-02-14T08:59:55.099Z,19.90
2023-02-14T09:02:22.402Z,19.92
2023-02-14T09:04:49.777Z,19.77
2023-02-14T09:07:17.389Z,19.64
2023-02-14T09:09:44.787Z,20.19
2023-02-14T09:12:12.237Z,19.79
2023-02-14T09:14:41.798Z,20.24
2023-02-14T09:17:09.371Z,19.94
2023-02-14T09:19:37.662Z,20.17
2023-02-14T09:22:06.772Z,20.99
2023-02-14T09:24:35.602Z,19.61
2023-02-14T09:27:02.902Z,20.04
2023-02-14T09:29:30.534Z,20.22
2023-02-14T09:31:59.741Z,19.86
2023-02-14T09:34:46.933Z,20.02
2023-02-14T09:37:32.944Z,20.16
2023-02-14T09:40:00.308Z,19.98
2023-02-14T09:42:27.475Z,19.09
2023-02-14T09:45:01.356Z,19.38
2023-02-14T09:47:49.009Z,19.65
2023-02-14T09:50:20.153Z,19.65
2023-02-14T09:52:49.744Z,19.95
2023-02-14T09:55:17.545Z,20.19
2023-02-14T09:58:03.550Z,19.58
2023-02-14T10:00:40.486Z,19.42
2023-02-14T10:03:26.501Z,19.61
2023-02-14T10:06:12.739Z,19.57
2023-02-14T10:08:47.260Z,20.11
2023-02-14T10:11:19.313Z,19.61
2023-02-14T10:13:50.479Z,19.68
2023-02-14T10:16:27.180Z,20.17
2023-02-14T10:19:00.572Z,20.56
2023-02-14T10:21:37.761Z,20.34
2023-02-14T10:24:14.200Z,21.18
2023-02-14T10:26:41.685Z,21.35
2023-02-14T10:29:13.435Z,22.33
2023-02-14T10:31:44.467Z,21.25
2023-02-14T10:34:17.359Z,21.79
2023-02-14T10:36:47.893Z,21.32
2023-02-14T10:39:34.188Z,22.10
2023-02-14T10:42:07.176Z,22.01
2023-02-14T10:44:48.060Z,22.30
2023-02-14T10:47:15.330Z,21.19
2023-02-14T10:50:03.421Z,20.56
2023-02-14T10:52:40.043Z,20.70
2023-02-14T10:55:32.037Z,19.88
2023-02-14T10:58:02.857Z,20.87
2023-02-14T11:00:35.119Z,20.88
2023-02-14T11:03:06.420Z,20.22
2023-02-14T11:05:45.031Z,20.26
2023-02-14T11:08:33.909Z,20.22
2023-02-14T11:11:19.821Z,20.29
2023-02-14T11:13:47.285Z,20.62
2023-02-14T11:16:31.862Z,20.76
2023-02-14T11:19:08.435Z,21.27
2023-02-14T11:21:39.584Z,21.45
2023-02-14T11:24:25.055Z,21.78
2023-02-14T11:26:55.747Z,21.46
2023-02-14T11:29:28.070Z,20.86
2023-02-14T11:31:56.100Z,21.18
2023-02-14T11:34:58.042Z,20.80
2023-02-14T11:37:34.498Z,20.88
2023-02-14T11:40:02.349Z,20.56
2023-02-14T11:42:51.664Z,21.00
2023-02-14T11:45:30.118Z,21.07
2023-02-14T11:48:06.574Z,20.76
2023-02-14T11:50:33.935Z,20.42
2023-02-14T11:53:01.397Z,20.79
2023-02-14T11:55:30.266Z,20.88
2023-02-14T11:57:57.789Z,20.34
2023-02-14T12:00:27.010Z,21.33
2023-02-14T12:02:56.020Z,21.22
2023-02-14T12:05:36.730Z,20.26
2023-02-14T12:08:05.346Z,20.68
2023-02-14T12:10:33.772Z,20.39
2023-02-14T12:13:01.267Z,20.05
2023-02-14T12:15:43.965Z,21.09
2023-02-14T12:18:29.915Z,20.43
2023-02-14T12:21:03.493Z,21.09
2023-02-14T12:23:42.264Z,21.61
2023-02-14T12:26:14.218Z,21.65
2023-02-14T12:28:45.400Z,21.57
2023-02-14T12:31:13.567Z,21.59
2023-02-14T12:33:41.100Z,21.42
2023-02-14T12:36:08.452Z,20.99
2023-02-14T12:38:39.512Z,20.44
2023-02-14T12:41:25.678Z,20.68
2023-02-14T12:43:56.822Z,20.03
2023-02-14T12:46:38.204Z,20.74
2023-02-14T12:49:08.576Z,20.92
2023-02-14T12:51:57.086Z,20.79
2023-02-14T12:54:36.611Z,20.26
2023-02-14T12:57:03.979Z,20.95
2023-02-14T12:59:43.892Z,20.10
2023-02-14T13:02:20.340Z,20.88
2023-02-14T13:05:06.750Z,20.36
2023-02-14T13:07:42.241Z,20.10
2023-02-14T13:10:09.561Z,19.92
2023-02-14T13:12:52.237Z,19.87
2023-02-14T13:15:32.026Z,21.21
2023-02-14T13:18:05.203Z,20.81
2023-02-14T13:20:38.442Z,20.71
2023-02-14T13:23:10.093Z,20.25
2023-02-14T13:25:42.847Z,20.42
2023-02-14T13:28:14.011Z,20.39
2023-02-14T13:30:43.239Z,20.65
2023-02-14T13:33:28.318Z,20.33
2023-02-14T13:35:57.496Z,21.29
2023-02-14T13:38:26.168Z,20.63
2023-02-14T13:40:55.198Z,21.17
2023-02-14T13:43:41.130Z,21.10
2023-02-14T13:46:08.404Z,20.61
2023-02-14T13:48:38.669Z,20.38
2023-02-14T13:51:10.187Z,19.83
2023-02-14T13:53:40.396Z,20.43
2023-02-14T13:56:15.481Z,19.67
2023-02-14T13:58:53.792Z,20.20
2023-02-14T14:01:39.341Z,20.17
2023-02-14T14:04:06.668Z,19.93
2023-02-14T14:06:52.979Z,19.99
2023-02-14T14:09:40.331Z,19.77
2023-02-14T14:12:26.453Z,20.10
2023-02-14T14:15:06.238Z,20.12
2023-02-14T14:17:46.187Z,20.69
2023-02-14T14:20:16.566Z,19.82
2023-02-14T14:22:48.078Z,19.86
2023-02-14T14:25:29.973Z,20.35
2023-02-14T14:27:57.838Z,20.01
2023-02-14T14:30:28.676Z,20.04
2023-02-14T14:32:56.432Z,20.73
2023-02-14T14:35:25.137Z,20.08
2023-02-14T14:37:56.375Z,20.60
2023-02-14T14:40:25.066Z,20.08
2023-02-14T14:42:52.964Z,19.99
2023-02-14T14:45:22.859Z,19.55
2023-02-14T14:47:53.933Z,19.89
2023-02-14T14:50:26.437Z,19.78
2023-02-14T14:52:55.725Z,18.76
2023-02-14T14:55:24.422Z,19.25
2023-02-14T14:57:52.720Z,19.73
2023-02-14T15:00:28.649Z,19.76
2023-02-14T15:02:56.899Z,20.29
2023-02-14T15:05:26.634Z,20.03
2023-02-14T15:07:54.089Z,19.48
2023-02-14T15:10:22.822Z,19.37
2023-02-14T15:13:09.916Z,19.47
2023-02-14T15:15:37.414Z,19.54
2023-02-14T15:18:05.724Z,19.23
2023-02-14T15:20:33.313Z,19.79
2023-02-14T15:23:01.368Z,19.27
2023-02-14T15:25:31.623Z,19.67
2023-02-14T15:27:59.399Z,19.81
2023-02-14T15:30:30.963Z,20.11
2023-02-14T15:32:58.776Z,19.61
2023-02-14T15:35:28.219Z,20.43
2023-02-14T15:37:57.306Z,20.87
2023-02-14T15:40:26.492Z,19.46
2023-02-14T15:42:57.502Z,19.85
2023-02-14T15:45:27.928Z,19.53
2023-02-14T15:47:57.138Z,20.05
2023-02-14T15:50:29.772Z,20.41
2023-02-14T15:53:04.225Z,20.22
2023-02-14T15:55:32.184Z,19.77
2023-02-14T15:58:06.764Z,19.72
2023-02-14T16:00:35.114Z,19.11
2023-02-14T16:03:05.420Z,19.46
2023-02-14T16:05:33.130Z,19.75
2023-02-14T16:08:00.637Z,19.77
2023-02-14T16:10:28.859Z,19.42
2023-02-14T16:13:01.235Z,19.42
2023-02-14T16:15:30.495Z,19.51
2023-02-14T16:17:57.966Z,19.35
2023-02-14T16:20:38.164Z,19.25
2023-02-14T16:23:17.780Z,19.09
2023-02-14T16:25:45.650Z,19.19
2023-02-14T16:28:13.274Z,19.02
2023-02-14T16:30:41.419Z,20.11
2023-02-14T16:33:30.132Z,20.63
2023-02-14T16:36:01.847Z,21.20
2023-02-14T16:38:29.245Z,21.57
2023-02-14T16:40:56.491Z,21.03
2023-02-14T16:43:23.830Z,20.69
2023-02-14T16:45:51.154Z,20.42
2023-02-14T16:48:18.566Z,20.19
2023-02-14T16:50:46.423Z,20.67
2023-02-14T16:53:25.252Z,20.29
2023-02-14T16:55:53.346Z,20.88
2023-02-14T16:58:22.132Z,20.45
2023-02-14T17:00:49.572Z,20.10
2023-02-14T17:03:16.909Z,20.34
2023-02-14T17:05:44.327Z,20.51
2023-02-14T17:08:13.601Z,20.11
2023-02-14T17:10:42.006Z,19.51
2023-02-14T17:13:10.608Z,19.65
2023-02-14T17:15:39.223Z,19.27
2023-02-14T17:18:11.335Z,19.63
2023-02-14T17:20:39.362Z,19.03
2023-02-14T17:23:06.649Z,18.87
2023-02-14T17:25:33.978Z,18.95
2023-02-14T17:28:01.283Z,18.90
2023-02-14T17:30:29.007Z,18.95
2023-02-14T17:32:56.306Z,18.90
2023-02-14T17:35:23.618Z,19.48
2023-02-14T17:37:50.898Z,19.26
2023-02-14T17:40:18.369Z,19.98
2023-02-14T17:42:46.063Z,19.05
2023-02-14T17:45:13.489Z,18.93
2023-02-14T17:47:43.263Z,19.71
2023-02-14T17:50:11.468Z,18.92
2023-02-14T17:52:39.142Z,18.99
2023-02-14T17:55:06.988Z,18.91
2023-02-14T17:57:34.343Z,19.19
2023-02-14T18:00:02.420Z,18.48
2023-02-14T18:02:40.392Z,19.06
2023-02-14T18:05:07.931Z,18.49
2023-02-14T18:07:35.814Z,18.42
2023-02-14T18:10:03.341Z,18.51
2023-02-14T18:12:31.129Z,18.45
2023-02-14T18:14:58.793Z,18.41
2023-02-14T18:17:26.069Z,18.32
2023-02-14T18:19:53.475Z,18.88
2023-02-14T18:22:21.003Z,18.82
2023-02-14T18:24:48.420Z,18.47
2023-02-14T18:27:15.947Z,19.42
2023-02-14T18:29:43.262Z,19.18
2023-02-14T18:32:10.548Z,19.51
2023-02-14T18:34:38.260Z,19.27
2023-02-14T18:37:06.182Z,18.52
2023-02-14T18:39:33.526Z,19.28
2023-02-14T18:42:01.465Z,19.74
2023-02-14T18:44:29.319Z,19.43
2023-02-14T18:46:56.667Z,18.84
2023-02-14T18:49:24.031Z,18.99
2023-02-14T18:51:51.237Z,19.70
2023-02-14T18:54:18.608Z,19.61
2023-02-14T18:56:46.893Z,20.34
2023-02-14T18:59:14.242Z,20.35
2023-02-14T19:01:42.983Z,19.13
2023-02-14T19:04:12.264Z,19.22
2023-02-14T19:06:41.060Z,20.58
2023-02-14T19:09:12.406Z,20.39
2023-02-14T19:11:40.153Z,19.44
2023-02-14T19:14:13.558Z,19.70
2023-02-14T19:16:43.890Z,18.64
2023-02-14T19:19:11.462Z,18.94
2023-02-14T19:21:38.741Z,18.78
2023-02-14T19:24:07.202Z,19.06
2023-02-14T19:26:37.754Z,20.15
2023-02-14T19:29:06.333Z,18.83
2023-02-14T19:31:37.994Z,18.90
2023-02-14T19:34:06.679Z,18.50
2023-02-14T19:36:36.382Z,18.80
2023-02-14T19:39:03.850Z,19.00
2023-02-14T19:41:31.915Z,19.51
2023-02-14T19:43:59.498Z,19.68
2023-02-14T19:46:27.478Z,20.05
2023-02-14T19:48:57.896Z,20.94
2023-02-14T19:51:29.444Z,19.88
2023-02-14T19:53:57.849Z,19.18
2023-02-14T19:56:26.514Z,19.41
2023-02-14T19:58:54.325Z,19.72
2023-02-14T20:01:26.178Z,19.73
2023-02-14T20:03:53.583Z,19.84
2023-02-14T20:06:21.688Z,19.83
2023-02-14T20:08:49.420Z,20.16
2023-02-14T20:11:36.269Z,19.96
2023-02-14T20:14:03.834Z,20.78
2023-02-14T20:16:32.061Z,19.53
2023-02-14T20:19:01.356Z,19.82
2023-02-14T20:21:28.805Z,20.74
2023-02-14T20:24:00.905Z,20.77
2023-02-14T20:26:29.146Z,20.68
2023-02-14T20:28:59.477Z,20.99
2023-02-14T20:31:27.142Z,21.01
2023-02-14T20:33:55.502Z,21.50
2023-02-14T20:36:22.848Z,22.19
2023-02-14T20:39:00.572Z,22.06
2023-02-14T20:41:28.539Z,21.54
2023-02-14T20:43:56.347Z,21.19
2023-02-14T20:46:23.679Z,21.69
2023-02-14T20:48:51.105Z,21.12
2023-02-14T20:51:19.455Z,21.67
2023-02-14T20:53:47.119Z,21.35
2023-02-14T20:56:15.098Z,21.01
2023-02-14T20:58:42.275Z,21.33
2023-02-14T21:01:11.129Z,21.27
2023-02-14T21:03:38.668Z,21.27
2023-02-14T21:06:06.932Z,21.83
2023-02-14T21:08:34.683Z,21.38
2023-02-14T21:11:03.029Z,21.68
2023-02-14T21:13:30.469Z,21.34
2023-02-14T21:16:02.085Z,21.53
2023-02-14T21:18:29.543Z,21.71
2023-02-14T21:21:03.566Z,21.04
2023-02-14T21:23:30.986Z,20.43
2023-02-14T21:25:58.224Z,21.46
2023-02-14T21:28:26.220Z,20.68
2023-02-14T21:31:01.818Z,21.34
2023-02-14T21:33:32.151Z,21.00
2023-02-14T21:36:10.081Z,21.05
2023-02-14T21:38:37.656Z,21.44
2023-02-14T21:41:08.980Z,21.55
2023-02-14T21:43:37.587Z,21.21
2023-02-14T21:46:29.428Z,22.02
2023-02-14T21:49:16.131Z,21.30
2023-02-14T21:51:43.341Z,21.26
2023-02-14T21:54:11.236Z,21.24
2023-02-14T21:56:39.136Z,21.36
2023-02-14T21:59:06.432Z,22.10
2023-02-14T22:01:34.842Z,21.58
2023-02-14T22:04:02.984Z,21.50
2023-02-14T22:06:30.300Z,21.57
2023-02-14T22:08:58.366Z,21.43
2023-02-14T22:11:26.651Z,21.46
2023-02-14T22:13:54.093Z,20.83
2023-02-14T22:16:22.286Z,21.60
2023-02-14T22:18:49.817Z,21.47
2023-02-14T22:21:18.689Z,21.57
2023-02-14T22:23:45.912Z,21.34
2023-02-14T22:26:14.928Z,21.27
2023-02-14T22:28:43.247Z,21.94
2023-02-14T22:31:11.067Z,21.71
2023-02-14T22:33:38.581Z,21.13
2023-02-14T22:36:06.457Z,21.29
2023-02-14T22:38:34.175Z,21.22
2023-02-14T22:41:12.183Z,21.81
2023-02-14T22:43:40.053Z,21.93
2023-02-14T22:46:08.977Z,21.49
2023-02-14T22:48:37.191Z,20.91
2023-02-14T22:51:20.970Z,21.61
2023-02-14T22:53:48.826Z,21.39
2023-02-14T22:56:17.312Z,21.69
2023-02-14T22:58:44.741Z,21.84
2023-02-14T23:01:14.976Z,22.12
2023-02-14T23:03:42.475Z,21.86
2023-02-14T23:06:10.001Z,22.06
2023-02-14T23:08:44.637Z,21.89
2023-02-14T23:11:16.536Z,21.59
2023-02-14T23:14:02.524Z,22.40
2023-02-14T23:16:48.712Z,21.53
2023-02-14T23:19:35.315Z,21.53
2023-02-14T23:22:06.807Z,21.54
2023-02-14T23:24:34.062Z,21.95
2023-02-14T23:27:01.488Z,21.17
2023-02-14T23:29:29.196Z,22.11
2023-02-14T23:31:56.952Z,21.58
2023-02-14T23:34:28.529Z,21.60
2023-02-14T23:36:55.836Z,21.60
2023-02-14T23:39:23.191Z,21.82
2023-02-14T23:41:50.556Z,22.48
2023-02-14T23:44:22.154Z,22.08
2023-02-14T23:46:50.196Z,22.02
2023-02-14T23:49:17.857Z,21.64
2023-02-14T23:51:45.786Z,21.85
2023-02-14T23:54:13.583Z,21.59
2023-02-14T23:56:41.018Z,21.12
2023-02-14T23:59:08.993Z,21.60
